Time;durP1;ratioP1;P1;durP2;ratioP2;P2;SDS_P1;SDS_P2;PMS_P1;PMS_P2;Temp;Humidity;BMP_temperature;BMP_pressure;BME280_temperature;BME280_humidity;BME280_pressure;Samples;Min_cycle;Max_cycle;Signal;HPM_P1;HPM_P2
2021/08/09 00:00:14;;;;;;;1.83;1.50;;;19.20;64.50;;;;;;1462724;40;20051;-61
2021/08/09 00:01:35;;;;;;;1.77;1.48;;;19.20;64.40;;;;;;1469475;40;20075;-60
2021/08/09 00:02:56;;;;;;;2.63;1.60;;;19.10;64.40;;;;;;1467807;40;20022;-61
2021/08/09 00:04:17;;;;;;;1.75;1.30;;;19.20;64.40;;;;;;1466724;40;20030;-61
2021/08/09 00:05:38;;;;;;;2.63;1.70;;;19.10;64.30;;;;;;1467817;40;20142;-60
2021/08/09 00:07:00;;;;;;;1.95;1.63;;;19.10;64.30;;;;;;1469618;40;20012;-60
2021/08/09 00:08:21;;;;;;;2.50;1.10;;;19.10;64.20;;;;;;1462274;40;20070;-60
2021/08/09 00:09:42;;;;;;;2.90;1.60;;;19.10;64.20;;;;;;1465460;40;20023;-61
2021/08/09 00:11:03;;;;;;;1.90;1.45;;;19.10;64.20;;;;;;1461976;40;20068;-60
2021/08/09 00:12:24;;;;;;;2.53;1.40;;;19.10;64.20;;;;;;1471917;40;20037;-60
2021/08/09 00:13:47;;;;;;;2.55;1.60;;;19.10;64.30;;;;;;1467449;40;20342;-61
2021/08/09 00:15:08;;;;;;;1.50;1.40;;;19.10;64.20;;;;;;1467886;40;20289;-60
2021/08/09 00:16:29;;;;;;;1.85;1.40;;;19.00;64.10;;;;;;1470120;40;20064;-61
2021/08/09 00:17:51;;;;;;;2.85;1.30;;;19.00;64.10;;;;;;1466620;40;20066;-60
2021/08/09 00:19:12;;;;;;;3.40;1.38;;;19.00;64.30;;;;;;1468664;40;20052;-60
2021/08/09 00:20:33;;;;;;;2.00;1.48;;;19.00;64.30;;;;;;1467642;40;20046;-62
2021/08/09 00:21:54;;;;;;;1.52;1.40;;;19.00;64.30;;;;;;1467199;40;20035;-60
2021/08/09 00:23:14;;;;;;;3.58;1.50;;;19.00;64.40;;;;;;1467489;40;20123;-62
2021/08/09 00:24:35;;;;;;;3.28;1.40;;;19.00;64.40;;;;;;1466618;40;20046;-61
2021/08/09 00:25:56;;;;;;;1.27;1.15;;;18.90;64.40;;;;;;1468115;40;20031;-62
2021/08/09 00:27:17;;;;;;;1.70;1.33;;;19.00;64.40;;;;;;1467612;40;20111;-62
2021/08/09 00:28:38;;;;;;;2.88;1.77;;;18.90;64.40;;;;;;1465539;40;20348;-62
2021/08/09 00:29:59;;;;;;;1.50;1.40;;;18.90;64.60;;;;;;1469878;40;20044;-61
2021/08/09 00:31:20;;;;;;;1.92;1.30;;;18.90;64.50;;;;;;1467378;40;20027;-62
2021/08/09 00:32:41;;;;;;;2.10;1.38;;;18.90;64.50;;;;;;1466371;40;20045;-62
2021/08/09 00:34:02;;;;;;;4.13;1.40;;;18.90;64.60;;;;;;1465042;40;20105;-61
2021/08/09 00:35:23;;;;;;;3.17;1.60;;;18.90;64.60;;;;;;1466915;40;20359;-62
2021/08/09 00:36:44;;;;;;;3.25;1.63;;;18.90;64.60;;;;;;1471253;40;20028;-61
2021/08/09 00:38:05;;;;;;;3.25;1.65;;;18.80;64.60;;;;;;1467227;40;20106;-61
2021/08/09 00:39:26;;;;;;;4.00;1.80;;;18.90;64.80;;;;;;1467269;40;20345;-61
2021/08/09 00:40:47;;;;;;;2.45;1.60;;;18.90;64.70;;;;;;1467445;40;20045;-62
2021/08/09 00:42:08;;;;;;;2.67;1.20;;;18.80;64.70;;;;;;1467498;40;20030;-61
2021/08/09 00:43:29;;;;;;;3.20;1.50;;;18.80;64.70;;;;;;1467212;40;20061;-62
2021/08/09 00:44:50;;;;;;;3.47;1.30;;;18.80;64.70;;;;;;1467065;40;20049;-61
2021/08/09 00:46:11;;;;;;;1.98;1.60;;;18.80;64.80;;;;;;1466947;40;20542;-62
2021/08/09 00:47:31;;;;;;;2.55;1.13;;;18.80;65.00;;;;;;1484364;40;20123;-62
2021/08/09 00:48:52;;;;;;;1.90;1.63;;;18.80;65.00;;;;;;1484934;40;20039;-65
2021/08/09 00:50:13;;;;;;;2.03;1.40;;;18.80;65.00;;;;;;1482262;40;20258;-62
2021/08/09 00:51:34;;;;;;;2.35;1.33;;;18.80;65.00;;;;;;1485165;40;20032;-61
2021/08/09 00:52:55;;;;;;;2.22;1.33;;;18.70;64.90;;;;;;1483491;40;20021;-61
2021/08/09 00:54:16;;;;;;;2.50;1.60;;;18.70;65.00;;;;;;1484221;40;20058;-61
2021/08/09 00:55:42;;;;;;;2.08;1.73;;;18.70;65.00;;;;;;1482786;40;20039;-61
2021/08/09 00:57:03;;;;;;;2.65;1.33;;;18.70;64.90;;;;;;1483498;40;20031;-61
2021/08/09 00:58:25;;;;;;;1.70;1.20;;;18.70;64.90;;;;;;1484481;40;20039;-61
2021/08/09 00:59:46;;;;;;;1.52;1.40;;;18.70;64.90;;;;;;1484001;40;20074;-61
2021/08/09 01:01:07;;;;;;;3.50;2.03;;;18.70;65.00;;;;;;1482986;40;20024;-61
2021/08/09 01:02:28;;;;;;;2.95;1.60;;;18.70;65.20;;;;;;1484844;40;20043;-61
2021/08/09 01:03:49;;;;;;;4.07;1.50;;;18.60;65.20;;;;;;1482798;40;20076;-61
2021/08/09 01:05:11;;;;;;;4.28;1.60;;;18.60;65.30;;;;;;1484646;40;20032;-62
2021/08/09 01:06:33;;;;;;;1.73;1.30;;;18.60;65.40;;;;;;1481275;40;20044;-61
2021/08/09 01:08:22;;;;;;;2.97;1.17;;;18.60;65.30;;;;;;1484001;40;20028;-61
2021/08/09 01:09:53;;;;;;;1.85;1.23;;;18.60;65.80;;;;;;1474242;40;20034;-61
2021/08/09 01:11:18;;;;;;;1.88;1.30;;;18.60;65.10;;;;;;1480441;40;20161;-61
2021/08/09 01:12:51;;;;;;;1.30;1.20;;;18.60;65.00;;;;;;1483779;40;20032;-61
2021/08/09 01:14:29;;;;;;;2.05;1.30;;;18.60;65.40;;;;;;1484700;40;20016;-61
2021/08/09 01:15:58;;;;;;;1.45;1.33;;;18.60;65.40;;;;;;1481902;40;20033;-61
2021/08/09 01:17:23;;;;;;;3.42;1.48;;;18.50;65.30;;;;;;1484121;40;20033;-61
2021/08/09 01:18:46;;;;;;;1.95;1.30;;;18.50;65.20;;;;;;1484419;40;20040;-61
2021/08/09 01:20:30;;;;;;;2.20;1.30;;;18.50;65.10;;;;;;1484721;40;20023;-62
2021/08/09 01:22:00;;;;;;;2.45;1.63;;;18.60;65.60;;;;;;1483679;40;20036;-61
2021/08/09 01:23:52;;;;;;;2.27;1.30;;;18.50;65.30;;;;;;1484570;40;20114;-61
2021/08/09 01:25:22;;;;;;;1.98;1.38;;;18.50;65.70;;;;;;1484237;40;20311;-61
2021/08/09 01:26:51;;;;;;;1.55;1.40;;;18.50;65.30;;;;;;1484476;40;20067;-61
2021/08/09 01:28:13;;;;;;;3.10;1.25;;;18.50;65.30;;;;;;1483589;40;20361;-61
2021/08/09 01:29:44;;;;;;;4.05;1.58;;;18.50;65.10;;;;;;1484552;40;20076;-61
2021/08/09 01:31:07;;;;;;;2.78;1.73;;;18.50;65.60;;;;;;1483460;40;20020;-61
2021/08/09 01:32:30;;;;;;;2.60;1.20;;;18.50;65.30;;;;;;1485096;40;20113;-61
2021/08/09 01:33:51;;;;;;;2.80;1.23;;;18.50;65.50;;;;;;1484217;40;20122;-61
2021/08/09 01:35:15;;;;;;;6.28;1.80;;;18.50;65.50;;;;;;1483177;40;20036;-62
2021/08/09 01:36:38;;;;;;;1.40;1.30;;;18.50;65.70;;;;;;1483631;40;20032;-62
2021/08/09 01:38:03;;;;;;;2.00;1.30;;;18.40;65.60;;;;;;1484835;40;20027;-62
2021/08/09 01:39:24;;;;;;;1.92;1.50;;;18.40;65.80;;;;;;1484270;40;20040;-61
2021/08/09 01:40:47;;;;;;;2.35;1.40;;;18.50;65.90;;;;;;1484328;40;20085;-61
2021/08/09 01:42:09;;;;;;;2.42;1.33;;;18.50;66.00;;;;;;1478790;40;20037;-62
2021/08/09 01:43:32;;;;;;;1.27;1.15;;;18.50;66.10;;;;;;1481677;40;20040;-61
2021/08/09 01:44:53;;;;;;;1.73;1.20;;;18.50;66.30;;;;;;1484105;40;20345;-61
2021/08/09 01:46:15;;;;;;;1.60;1.45;;;18.50;66.20;;;;;;1480037;40;20032;-61
2021/08/09 01:47:38;;;;;;;1.30;1.13;;;18.50;66.30;;;;;;1475351;40;20032;-61
2021/08/09 01:49:01;;;;;;;1.35;1.25;;;18.50;66.20;;;;;;1465719;40;20027;-61
2021/08/09 01:50:23;;;;;;;1.10;1.00;;;18.50;66.20;;;;;;1466767;40;20034;-61
2021/08/09 01:51:44;;;;;;;2.58;1.70;;;18.50;66.20;;;;;;1465135;40;20030;-61
2021/08/09 01:53:06;;;;;;;1.52;1.30;;;18.50;66.20;;;;;;1464501;40;20275;-61
2021/08/09 01:54:27;;;;;;;1.98;1.30;;;18.60;66.40;;;;;;1469372;40;20034;-61
2021/08/09 01:55:48;;;;;;;2.25;1.30;;;18.50;66.40;;;;;;1471385;40;20024;-61
2021/08/09 01:57:09;;;;;;;1.48;1.38;;;18.60;66.50;;;;;;1464193;40;20119;-61
2021/08/09 01:58:30;;;;;;;2.72;1.27;;;18.60;66.60;;;;;;1465450;40;20023;-61
2021/08/09 01:59:51;;;;;;;1.90;1.70;;;18.50;66.60;;;;;;1463815;40;20041;-61
2021/08/09 02:01:12;;;;;;;2.42;1.52;;;18.50;66.60;;;;;;1465578;40;20271;-61
2021/08/09 02:02:33;;;;;;;2.45;1.30;;;18.60;66.60;;;;;;1463775;40;20057;-61
2021/08/09 02:03:54;;;;;;;1.50;1.27;;;18.60;66.70;;;;;;1465720;40;20030;-61
2021/08/09 02:05:17;;;;;;;1.95;1.50;;;18.60;66.80;;;;;;1466163;40;20031;-61
2021/08/09 02:06:38;;;;;;;1.88;1.67;;;18.60;66.80;;;;;;1463148;40;20086;-61
2021/08/09 02:08:00;;;;;;;2.40;1.42;;;18.60;66.70;;;;;;1463585;40;20031;-61
2021/08/09 02:09:20;;;;;;;1.48;1.05;;;18.60;66.80;;;;;;1464809;40;20260;-61
2021/08/09 02:10:46;;;;;;;1.23;1.00;;;18.60;66.70;;;;;;1466698;40;20163;-62
2021/08/09 02:12:07;;;;;;;1.60;1.50;;;18.60;66.70;;;;;;1465039;40;20026;-61
2021/08/09 02:13:37;;;;;;;1.92;1.40;;;18.70;66.70;;;;;;1463923;40;20041;-62
2021/08/09 02:15:03;;;;;;;1.10;1.00;;;18.60;66.90;;;;;;1464323;40;20023;-61
2021/08/09 02:16:35;;;;;;;1.88;1.30;;;18.70;66.70;;;;;;1466965;40;20039;-61
2021/08/09 02:18:07;;;;;;;2.00;1.52;;;18.70;66.80;;;;;;1465049;40;20041;-61
2021/08/09 02:19:34;;;;;;;2.33;1.20;;;18.70;66.80;;;;;;1467856;40;20041;-60
2021/08/09 02:20:59;;;;;;;5.13;1.73;;;18.70;66.60;;;;;;1463787;40;20022;-61
2021/08/09 02:22:30;;;;;;;1.95;1.30;;;18.70;66.60;;;;;;1479718;40;20072;-61
2021/08/09 02:23:53;;;;;;;4.20;2.00;;;18.70;66.70;;;;;;1479517;40;20047;-61
2021/08/09 02:25:22;;;;;;;3.30;1.60;;;18.70;66.60;;;;;;1468354;40;20080;-61
2021/08/09 02:26:52;;;;;;;2.97;1.40;;;18.70;66.80;;;;;;1462927;40;20296;-61
2021/08/09 02:28:19;;;;;;;3.38;1.45;;;18.70;66.70;;;;;;1465220;40;20033;-61
2021/08/09 02:29:45;;;;;;;1.85;1.50;;;18.70;66.70;;;;;;1474957;40;20042;-62
2021/08/09 02:31:08;;;;;;;4.03;1.90;;;18.70;66.70;;;;;;1472713;40;20058;-61
2021/08/09 02:32:31;;;;;;;1.92;1.27;;;18.70;66.60;;;;;;1465080;40;20030;-61
2021/08/09 02:33:53;;;;;;;1.88;1.63;;;18.70;67.30;;;;;;1464966;40;20023;-61
2021/08/09 02:35:17;;;;;;;3.63;1.77;;;18.70;66.60;;;;;;1463844;40;20038;-61
2021/08/09 02:36:39;;;;;;;3.00;1.30;;;18.70;66.60;;;;;;1464184;40;20078;-61
2021/08/09 02:38:00;;;;;;;2.92;1.20;;;18.70;66.60;;;;;;1465158;40;20593;-61
2021/08/09 02:39:22;;;;;;;1.80;1.60;;;18.70;66.60;;;;;;1465723;40;20433;-61
2021/08/09 02:40:44;;;;;;;2.33;1.40;;;18.70;66.70;;;;;;1464757;40;20034;-61
2021/08/09 02:42:05;;;;;;;3.42;1.50;;;18.70;66.80;;;;;;1465306;40;20030;-61
2021/08/09 02:43:27;;;;;;;2.63;1.52;;;18.70;66.80;;;;;;1465339;40;20042;-61
2021/08/09 02:44:49;;;;;;;3.50;1.52;;;18.70;66.80;;;;;;1463475;40;20050;-61
2021/08/09 02:46:09;;;;;;;3.60;1.48;;;18.70;66.90;;;;;;1482520;40;20028;-61
2021/08/09 02:47:37;;;;;;;2.30;1.58;;;18.70;66.90;;;;;;1460151;40;20035;-61
2021/08/09 02:48:59;;;;;;;2.88;1.40;;;18.70;67.00;;;;;;1464167;40;20036;-61
2021/08/09 02:50:20;;;;;;;3.40;2.03;;;18.70;67.00;;;;;;1464352;40;20035;-61
2021/08/09 02:51:41;;;;;;;3.53;1.50;;;18.70;67.00;;;;;;1462462;40;20022;-61
2021/08/09 02:53:02;;;;;;;3.33;1.70;;;18.70;67.10;;;;;;1464914;40;20027;-61
2021/08/09 02:54:23;;;;;;;6.40;1.90;;;18.60;67.00;;;;;;1465417;40;20042;-61
2021/08/09 02:55:50;;;;;;;2.63;1.30;;;18.70;67.20;;;;;;1479173;40;20039;-60
2021/08/09 02:57:12;;;;;;;5.50;1.70;;;18.70;67.20;;;;;;1470578;40;20058;-64
2021/08/09 02:58:33;;;;;;;3.00;1.90;;;18.70;67.10;;;;;;1461747;40;20041;-61
2021/08/09 02:59:55;;;;;;;2.53;1.45;;;18.70;67.10;;;;;;1464207;40;20039;-61
2021/08/09 03:01:18;;;;;;;1.92;1.00;;;18.70;67.20;;;;;;1465279;40;20335;-61
2021/08/09 03:02:41;;;;;;;2.80;1.38;;;18.60;67.00;;;;;;1462727;40;20109;-61
2021/08/09 03:04:05;;;;;;;5.80;1.60;;;18.70;67.20;;;;;;1466439;40;20022;-61
2021/08/09 03:05:26;;;;;;;3.28;1.27;;;18.70;67.20;;;;;;1465604;40;20369;-61
2021/08/09 03:06:47;;;;;;;2.50;1.88;;;18.70;67.20;;;;;;1463620;40;20035;-61
2021/08/09 03:08:12;;;;;;;2.30;1.65;;;18.60;67.10;;;;;;1465844;40;20042;-61
2021/08/09 03:09:35;;;;;;;1.80;1.50;;;18.70;67.40;;;;;;1478012;40;20694;-61
2021/08/09 03:10:56;;;;;;;2.78;1.63;;;18.70;67.30;;;;;;1464472;40;20050;-61
2021/08/09 03:12:18;;;;;;;3.10;1.70;;;18.70;67.20;;;;;;1466007;40;20064;-62
2021/08/09 03:13:45;;;;;;;3.60;1.70;;;18.70;67.90;;;;;;1463231;40;20043;-61
2021/08/09 03:15:07;;;;;;;2.20;1.48;;;18.70;67.50;;;;;;1469227;40;20053;-61
2021/08/09 03:16:28;;;;;;;2.00;1.35;;;18.70;67.40;;;;;;1477044;40;20041;-61
2021/08/09 03:17:49;;;;;;;1.85;1.42;;;18.70;67.30;;;;;;1465584;40;20027;-65
2021/08/09 03:19:09;;;;;;;2.35;1.40;;;18.70;67.40;;;;;;1481443;40;20028;-64
2021/08/09 03:20:30;;;;;;;2.65;1.70;;;18.70;67.40;;;;;;1461675;40;20064;-63
2021/08/09 03:21:57;;;;;;;3.53;1.60;;;18.70;67.40;;;;;;1465958;40;20042;-63
2021/08/09 03:23:17;;;;;;;2.13;1.33;;;18.70;67.40;;;;;;1465946;40;20034;-64
2021/08/09 03:24:39;;;;;;;2.08;1.67;;;18.70;67.30;;;;;;1466887;40;20367;-64
2021/08/09 03:26:00;;;;;;;2.28;1.73;;;18.70;67.30;;;;;;1467001;40;20027;-63
2021/08/09 03:27:21;;;;;;;3.65;1.48;;;18.70;67.30;;;;;;1465173;40;20061;-63
2021/08/09 03:28:41;;;;;;;4.80;1.90;;;18.70;67.30;;;;;;1470807;40;20092;-62
2021/08/09 03:30:03;;;;;;;2.20;1.30;;;18.70;67.30;;;;;;1468762;40;20049;-61
2021/08/09 03:31:24;;;;;;;2.15;1.45;;;18.70;67.30;;;;;;1478187;40;20039;-62
2021/08/09 03:32:45;;;;;;;1.60;1.30;;;18.70;67.40;;;;;;1462768;40;20035;-61
2021/08/09 03:34:06;;;;;;;2.05;1.38;;;18.70;67.30;;;;;;1471867;40;20045;-61
2021/08/09 03:35:27;;;;;;;1.55;1.13;;;18.70;67.30;;;;;;1465214;40;20448;-61
2021/08/09 03:36:49;;;;;;;1.42;1.23;;;18.70;67.40;;;;;;1464390;40;20597;-61
2021/08/09 03:38:10;;;;;;;2.05;1.52;;;18.70;67.50;;;;;;1466767;40;20366;-61
2021/08/09 03:39:31;;;;;;;1.60;1.40;;;18.70;67.50;;;;;;1463760;40;20030;-61
2021/08/09 03:40:52;;;;;;;3.28;1.15;;;18.70;67.60;;;;;;1465465;40;20034;-61
2021/08/09 03:42:13;;;;;;;1.63;1.30;;;18.70;67.70;;;;;;1466053;40;20052;-61
2021/08/09 03:43:34;;;;;;;2.15;1.50;;;18.70;67.60;;;;;;1462706;40;20039;-61
2021/08/09 03:44:55;;;;;;;1.48;1.30;;;18.70;67.60;;;;;;1473940;39;20298;-61
2021/08/09 03:46:16;;;;;;;2.33;1.63;;;18.70;67.70;;;;;;1465011;40;20030;-61
2021/08/09 03:47:36;;;;;;;3.35;1.30;;;18.70;67.70;;;;;;1466928;40;20054;-61
2021/08/09 03:48:57;;;;;;;3.05;1.70;;;18.70;67.70;;;;;;1465757;40;20023;-61
2021/08/09 03:50:18;;;;;;;1.20;1.13;;;18.70;67.60;;;;;;1467149;40;20035;-61
2021/08/09 03:51:40;;;;;;;2.20;1.40;;;18.70;67.50;;;;;;1464715;40;20034;-61
2021/08/09 03:53:01;;;;;;;2.83;1.70;;;18.70;67.50;;;;;;1466646;40;20031;-61
2021/08/09 03:54:22;;;;;;;3.63;1.63;;;18.70;67.50;;;;;;1464366;40;20038;-61
2021/08/09 03:55:43;;;;;;;2.10;1.60;;;18.70;67.60;;;;;;1471275;40;20031;-61
2021/08/09 03:57:03;;;;;;;3.03;1.50;;;18.70;67.50;;;;;;1464867;40;20034;-62
2021/08/09 03:58:24;;;;;;;1.50;1.40;;;18.70;67.70;;;;;;1464806;40;20418;-61
2021/08/09 03:59:45;;;;;;;1.55;1.40;;;18.70;67.70;;;;;;1464371;40;20034;-61
2021/08/09 04:01:07;;;;;;;2.17;1.42;;;18.80;67.80;;;;;;1464853;40;20361;-61
2021/08/09 04:02:30;;;;;;;1.30;1.20;;;18.70;67.80;;;;;;1464134;40;20042;-61
2021/08/09 04:03:51;;;;;;;3.03;1.80;;;18.80;67.80;;;;;;1464729;40;20034;-61
2021/08/09 04:05:13;;;;;;;3.25;1.50;;;18.70;67.70;;;;;;1466860;40;20030;-61
2021/08/09 04:06:34;;;;;;;1.27;1.17;;;18.80;67.80;;;;;;1463945;40;20041;-61
2021/08/09 04:07:55;;;;;;;2.13;1.58;;;18.80;67.80;;;;;;1465738;40;20027;-60
2021/08/09 04:09:16;;;;;;;4.45;1.60;;;18.80;67.80;;;;;;1464432;40;20556;-61
2021/08/09 04:10:38;;;;;;;1.50;1.40;;;18.80;67.80;;;;;;1466608;40;20067;-61
2021/08/09 04:11:59;;;;;;;2.63;1.73;;;18.80;67.90;;;;;;1466517;40;20041;-61
2021/08/09 04:13:21;;;;;;;2.80;1.40;;;18.80;67.80;;;;;;1465435;40;20052;-61
2021/08/09 04:14:42;;;;;;;2.75;1.67;;;18.80;67.80;;;;;;1465165;40;20543;-61
2021/08/09 04:16:03;;;;;;;1.52;1.40;;;18.80;67.80;;;;;;1466130;40;20030;-61
2021/08/09 04:17:24;;;;;;;1.92;1.50;;;18.80;67.80;;;;;;1465734;40;20445;-61
2021/08/09 04:18:45;;;;;;;2.08;1.48;;;18.80;67.80;;;;;;1464750;40;20031;-61
2021/08/09 04:20:06;;;;;;;2.60;1.50;;;18.80;67.90;;;;;;1472209;40;20047;-61
2021/08/09 04:21:27;;;;;;;1.92;1.20;;;18.90;68.40;;;;;;1478945;40;20044;-61
2021/08/09 04:22:48;;;;;;;2.03;1.40;;;18.80;67.60;;;;;;1464311;40;20035;-61
2021/08/09 04:24:09;;;;;;;2.80;1.42;;;18.80;67.50;;;;;;1464829;40;20030;-61
2021/08/09 04:25:30;;;;;;;1.95;1.60;;;18.80;67.50;;;;;;1480399;40;20123;-61
2021/08/09 04:26:51;;;;;;;2.75;1.55;;;18.80;67.50;;;;;;1480713;40;20037;-61
2021/08/09 04:28:12;;;;;;;4.25;1.65;;;18.90;67.50;;;;;;1470801;40;20088;-62
2021/08/09 04:29:33;;;;;;;2.90;1.35;;;18.90;67.30;;;;;;1458314;40;20031;-61
2021/08/09 04:30:53;;;;;;;2.05;1.40;;;18.90;67.30;;;;;;1469102;40;20404;-61
2021/08/09 04:32:17;;;;;;;2.40;1.40;;;18.90;67.20;;;;;;1467300;40;20037;-61
2021/08/09 04:33:48;;;;;;;2.55;1.33;;;18.90;67.20;;;;;;1459364;40;20051;-61
2021/08/09 04:35:11;;;;;;;1.40;1.20;;;18.80;67.30;;;;;;1468070;40;20386;-61
2021/08/09 04:36:32;;;;;;;3.17;1.25;;;18.80;67.10;;;;;;1464812;40;20345;-61
2021/08/09 04:37:52;;;;;;;3.70;1.48;;;18.90;67.20;;;;;;1460445;40;20027;-61
2021/08/09 04:39:13;;;;;;;2.70;1.50;;;18.90;67.20;;;;;;1466819;40;20336;-61
2021/08/09 04:40:34;;;;;;;2.60;1.38;;;18.90;67.80;;;;;;1463807;40;20095;-61
2021/08/09 04:41:55;;;;;;;2.85;1.45;;;18.90;67.10;;;;;;1465912;40;20015;-61
2021/08/09 04:43:16;;;;;;;1.77;1.67;;;18.90;67.00;;;;;;1465570;40;20111;-60
2021/08/09 04:44:37;;;;;;;2.05;1.40;;;18.90;67.00;;;;;;1465020;40;20058;-60
2021/08/09 04:45:58;;;;;;;3.33;1.50;;;18.80;67.00;;;;;;1464245;40;20038;-61
2021/08/09 04:47:19;;;;;;;2.85;1.35;;;18.80;66.90;;;;;;1467652;40;20041;-61
2021/08/09 04:48:39;;;;;;;2.08;1.48;;;18.90;67.10;;;;;;1467046;40;20037;-60
2021/08/09 04:50:00;;;;;;;1.23;1.10;;;18.80;67.00;;;;;;1473133;40;20107;-61
2021/08/09 04:51:21;;;;;;;2.70;1.73;;;18.90;67.10;;;;;;1466726;40;20099;-61
2021/08/09 04:52:43;;;;;;;1.95;1.50;;;18.90;67.10;;;;;;1480531;40;20052;-60
2021/08/09 04:54:04;;;;;;;1.88;1.30;;;18.80;67.10;;;;;;1466977;40;20042;-61
2021/08/09 04:55:24;;;;;;;1.90;1.42;;;18.90;67.20;;;;;;1468689;40;20074;-61
2021/08/09 04:56:45;;;;;;;2.65;1.73;;;18.90;67.10;;;;;;1468075;40;20041;-61
2021/08/09 04:58:06;;;;;;;6.32;1.83;;;18.90;67.20;;;;;;1467772;40;20038;-61
2021/08/09 04:59:27;;;;;;;1.48;1.23;;;18.90;67.10;;;;;;1470557;40;20038;-61
2021/08/09 05:00:48;;;;;;;2.22;1.40;;;18.90;67.00;;;;;;1469299;40;20422;-61
2021/08/09 05:02:09;;;;;;;1.95;1.30;;;18.90;67.00;;;;;;1466041;40;20034;-60
2021/08/09 05:03:39;;;;;;;3.28;1.25;;;18.90;67.00;;;;;;1463431;40;20062;-61
2021/08/09 05:05:00;;;;;;;;;;;18.90;67.20;;;;;;1467177;40;20543;-61
2021/08/09 05:06:22;;;;;;;2.03;1.27;;;18.90;67.10;;;;;;1467183;40;20192;-60
2021/08/09 05:07:43;;;;;;;2.05;1.38;;;18.90;66.60;;;;;;1472657;40;20404;-60
2021/08/09 05:09:04;;;;;;;5.82;1.80;;;19.00;66.80;;;;;;1476649;40;20022;-60
2021/08/09 05:10:26;;;;;;;2.05;1.10;;;18.90;66.70;;;;;;1467697;40;20030;-61
2021/08/09 05:11:46;;;;;;;3.83;1.58;;;18.90;66.70;;;;;;1465585;40;20030;-60
2021/08/09 05:13:07;;;;;;;1.58;1.35;;;18.90;66.80;;;;;;1468545;40;20381;-60
2021/08/09 05:14:28;;;;;;;2.38;1.50;;;18.90;66.80;;;;;;1471026;40;20044;-60
2021/08/09 05:15:49;;;;;;;2.00;1.25;;;18.90;66.90;;;;;;1464510;40;20075;-61
2021/08/09 05:17:10;;;;;;;1.40;1.30;;;18.90;66.90;;;;;;1466379;40;20030;-62
2021/08/09 05:18:31;;;;;;;1.35;1.20;;;18.90;67.00;;;;;;1470965;40;20129;-61
2021/08/09 05:19:53;;;;;;;1.38;1.27;;;18.90;67.00;;;;;;1466263;40;20026;-60
2021/08/09 05:21:16;;;;;;;2.50;1.23;;;18.90;67.10;;;;;;1467022;40;20038;-60
2021/08/09 05:22:36;;;;;;;2.05;1.45;;;18.90;67.10;;;;;;1466618;40;20564;-61
2021/08/09 05:23:59;;;;;;;1.58;1.35;;;19.00;67.20;;;;;;1467901;40;20032;-61
2021/08/09 05:25:21;;;;;;;2.15;1.30;;;19.00;67.40;;;;;;1468157;40;20039;-60
2021/08/09 05:26:42;;;;;;;2.58;1.83;;;19.00;67.30;;;;;;1466617;40;20034;-61
2021/08/09 05:28:03;;;;;;;4.30;1.20;;;19.00;67.30;;;;;;1465914;40;20030;-61
2021/08/09 05:29:24;;;;;;;2.97;1.52;;;19.00;67.40;;;;;;1468216;40;20033;-61
2021/08/09 05:30:46;;;;;;;4.07;1.75;;;19.00;67.40;;;;;;1467775;40;20033;-61
2021/08/09 05:32:07;;;;;;;1.80;1.52;;;19.00;67.40;;;;;;1466027;40;20891;-60
2021/08/09 05:33:29;;;;;;;2.85;1.60;;;19.00;67.50;;;;;;1466211;40;20038;-60
2021/08/09 05:34:50;;;;;;;4.50;1.55;;;19.00;67.40;;;;;;1466458;40;20033;-61
2021/08/09 05:36:11;;;;;;;1.65;1.50;;;19.00;67.40;;;;;;1466921;40;20026;-61
2021/08/09 05:37:34;;;;;;;1.50;1.40;;;19.00;67.50;;;;;;1468046;40;20064;-60
2021/08/09 05:38:55;;;;;;;1.58;1.33;;;19.10;67.60;;;;;;1465317;40;20275;-61
2021/08/09 05:40:16;;;;;;;4.03;1.42;;;19.10;67.50;;;;;;1466340;40;20038;-60
2021/08/09 05:41:37;;;;;;;1.77;1.13;;;19.10;67.60;;;;;;1472787;40;20268;-61
2021/08/09 05:42:57;;;;;;;1.83;1.40;;;19.10;67.60;;;;;;1466167;40;20119;-61
2021/08/09 05:44:18;;;;;;;2.78;1.80;;;19.10;67.60;;;;;;1468539;40;20026;-61
2021/08/09 05:45:39;;;;;;;1.95;1.55;;;19.10;67.60;;;;;;1468745;40;20031;-60
2021/08/09 05:47:00;;;;;;;1.90;1.70;;;19.10;67.60;;;;;;1468760;40;20049;-60
2021/08/09 05:48:21;;;;;;;2.60;1.60;;;19.10;67.60;;;;;;1465157;40;20035;-61
2021/08/09 05:49:42;;;;;;;2.58;1.60;;;19.10;67.60;;;;;;1461578;40;20033;-60
2021/08/09 05:51:03;;;;;;;3.95;1.60;;;19.20;67.60;;;;;;1471844;40;20041;-61
2021/08/09 05:52:26;;;;;;;2.85;1.50;;;19.20;67.50;;;;;;1471543;40;20037;-61
2021/08/09 05:53:46;;;;;;;1.92;1.73;;;19.20;67.50;;;;;;1463963;40;20155;-61
2021/08/09 05:55:08;;;;;;;2.53;1.13;;;19.20;67.30;;;;;;1458894;40;20038;-61
2021/08/09 05:56:29;;;;;;;1.65;1.17;;;19.20;67.30;;;;;;1459651;40;20052;-61
2021/08/09 05:57:51;;;;;;;1.50;1.20;;;19.20;67.30;;;;;;1463121;40;20078;-61
2021/08/09 05:59:12;;;;;;;2.63;1.35;;;19.10;67.20;;;;;;1467456;40;20034;-61
2021/08/09 06:00:33;;;;;;;2.55;1.48;;;19.20;67.20;;;;;;1464233;40;20026;-61
2021/08/09 06:01:54;;;;;;;3.53;1.42;;;19.10;67.20;;;;;;1462455;40;20027;-61
2021/08/09 06:03:18;;;;;;;3.00;1.30;;;19.20;67.20;;;;;;1464030;40;20050;-61
2021/08/09 06:04:39;;;;;;;2.53;1.52;;;19.20;67.20;;;;;;1462110;40;20026;-61
2021/08/09 06:06:00;;;;;;;1.55;1.20;;;19.20;67.20;;;;;;1461359;40;20042;-61
2021/08/09 06:07:20;;;;;;;2.40;1.48;;;19.20;67.30;;;;;;1461782;40;20035;-60
2021/08/09 06:08:42;;;;;;;3.13;1.25;;;19.20;67.30;;;;;;1464682;40;20033;-60
2021/08/09 06:10:04;;;;;;;1.50;1.27;;;19.20;67.30;;;;;;1462986;40;20080;-61
2021/08/09 06:11:25;;;;;;;2.97;1.55;;;19.20;67.30;;;;;;1462162;40;20263;-61
2021/08/09 06:12:46;;;;;;;2.08;1.23;;;19.20;67.30;;;;;;1466796;40;20025;-60
2021/08/09 06:14:06;;;;;;;2.72;1.60;;;19.20;67.30;;;;;;1464157;40;20406;-60
2021/08/09 06:15:27;;;;;;;1.58;1.17;;;19.20;67.20;;;;;;1471835;40;20148;-60
2021/08/09 06:16:48;;;;;;;2.47;1.50;;;19.30;67.30;;;;;;1464693;40;20402;-60
2021/08/09 06:18:09;;;;;;;2.15;1.20;;;19.20;67.20;;;;;;1463180;40;20034;-61
2021/08/09 06:19:31;;;;;;;1.73;1.42;;;19.20;67.20;;;;;;1464331;40;20063;-61
2021/08/09 06:20:52;;;;;;;1.55;1.23;;;19.20;67.20;;;;;;1462974;40;20022;-60
2021/08/09 06:22:13;;;;;;;2.97;1.40;;;19.30;67.30;;;;;;1459329;40;20071;-61
2021/08/09 06:23:34;;;;;;;2.92;1.30;;;19.30;67.30;;;;;;1466281;40;20095;-61
2021/08/09 06:24:54;;;;;;;1.75;1.40;;;19.30;67.30;;;;;;1465847;40;20023;-61
2021/08/09 06:26:15;;;;;;;3.08;1.60;;;19.20;67.20;;;;;;1463464;40;20019;-61
2021/08/09 06:27:36;;;;;;;2.97;1.90;;;19.30;67.30;;;;;;1462596;40;20088;-61
2021/08/09 06:28:57;;;;;;;2.75;1.30;;;19.30;67.30;;;;;;1460163;40;20435;-60
2021/08/09 06:30:18;;;;;;;1.23;1.13;;;19.30;67.30;;;;;;1464493;40;20038;-61
2021/08/09 06:31:39;;;;;;;3.53;1.30;;;19.30;67.30;;;;;;1462879;40;20031;-60
2021/08/09 06:33:00;;;;;;;1.80;1.45;;;19.30;67.30;;;;;;1463763;40;20031;-61
2021/08/09 06:34:21;;;;;;;2.42;1.60;;;19.30;67.30;;;;;;1464007;40;20038;-61
2021/08/09 06:35:42;;;;;;;4.57;1.50;;;19.30;67.30;;;;;;1462344;40;20027;-60
2021/08/09 06:37:03;;;;;;;2.90;1.30;;;19.30;67.30;;;;;;1465077;40;20027;-60
2021/08/09 06:38:24;;;;;;;2.45;1.50;;;19.30;67.30;;;;;;1479718;40;20033;-60
2021/08/09 06:39:44;;;;;;;2.63;1.60;;;19.30;67.30;;;;;;1478261;40;20040;-62
2021/08/09 06:41:05;;;;;;;1.95;1.33;;;19.40;67.40;;;;;;1463379;40;20038;-62
2021/08/09 06:42:27;;;;;;;3.83;1.73;;;19.40;67.40;;;;;;1464774;40;20030;-60
2021/08/09 06:43:48;;;;;;;2.72;1.42;;;19.40;67.40;;;;;;1466658;39;20023;-61
2021/08/09 06:45:09;;;;;;;4.55;1.52;;;19.40;67.40;;;;;;1461400;40;20031;-61
2021/08/09 06:46:30;;;;;;;3.67;1.70;;;19.40;67.40;;;;;;1462448;40;20038;-62
2021/08/09 06:47:51;;;;;;;2.35;1.42;;;19.40;67.30;;;;;;1463380;40;20376;-61
2021/08/09 06:49:12;;;;;;;3.92;1.58;;;19.40;67.30;;;;;;1461378;40;20058;-61
2021/08/09 06:50:33;;;;;;;2.63;1.50;;;19.40;67.20;;;;;;1462628;40;20041;-62
2021/08/09 06:51:54;;;;;;;1.95;1.20;;;19.40;67.20;;;;;;1461139;40;20288;-62
2021/08/09 06:53:16;;;;;;;2.55;1.50;;;19.50;67.40;;;;;;1461767;40;20042;-62
2021/08/09 06:54:37;;;;;;;2.13;1.42;;;19.50;67.50;;;;;;1464352;40;20640;-61
2021/08/09 06:55:58;;;;;;;2.30;1.55;;;19.50;67.50;;;;;;1465825;40;20086;-62
2021/08/09 06:57:19;;;;;;;1.88;1.38;;;19.50;67.50;;;;;;1468162;40;20050;-62
2021/08/09 06:58:40;;;;;;;1.63;1.17;;;19.50;67.40;;;;;;1463396;40;20461;-62
2021/08/09 07:00:01;;;;;;;2.70;1.20;;;19.50;67.30;;;;;;1463260;40;20624;-62
2021/08/09 07:01:23;;;;;;;3.05;1.50;;;19.60;67.40;;;;;;1463100;40;20049;-62
2021/08/09 07:02:44;;;;;;;2.78;1.40;;;19.60;67.40;;;;;;1461831;40;20257;-62
2021/08/09 07:04:05;;;;;;;3.42;1.60;;;19.60;67.30;;;;;;1463681;40;20029;-62
2021/08/09 07:05:25;;;;;;;3.50;1.40;;;19.60;67.40;;;;;;1462693;40;20038;-62
2021/08/09 07:06:50;;;;;;;2.03;1.17;;;19.60;67.40;;;;;;1462662;40;20038;-62
2021/08/09 07:08:12;;;;;;;2.60;1.02;;;19.60;67.30;;;;;;1462598;40;20056;-62